Time;durP1;ratioP1;P1;durP2;ratioP2;P2;SDS_P1;SDS_P2;PMS_P1;PMS_P2;Temp;Humidity;BMP_temperature;BMP_pressure;BME280_temperature;BME280_humidity;BME280_pressure;Samples;Min_cycle;Max_cycle;Signal;HPM_P1;HPM_P2
2022/07/09 00:00:46;;;;;;;3.13;1.27;;;;;;;;;;5070574;28;20035;-68
2022/07/09 00:03:12;;;;;;;4.45;1.50;;;;;;;;;;5069708;28;20077;-68
2022/07/09 00:05:38;;;;;;;2.42;1.10;;;;;;;;;;5067887;28;20038;-68
2022/07/09 00:08:05;;;;;;;5.60;1.50;;;;;;;;;;5070783;28;20032;-68
2022/07/09 00:10:31;;;;;;;2.35;1.30;;;;;;;;;;5072654;28;20403;-68
2022/07/09 00:12:57;;;;;;;2.40;1.10;;;;;;;;;;5072785;28;20490;-68
2022/07/09 00:15:25;;;;;;;9.43;1.35;;;;;;;;;;5073838;28;20029;-69
2022/07/09 00:17:51;;;;;;;5.47;1.40;;;;;;;;;;5072348;28;20390;-68
2022/07/09 00:20:18;;;;;;;4.25;1.20;;;;;;;;;;5072151;28;20031;-69
2022/07/09 00:22:44;;;;;;;3.15;1.25;;;;;;;;;;5070146;28;20012;-69
2022/07/09 00:25:10;;;;;;;4.30;1.05;;;;;;;;;;5072043;28;20036;-69
2022/07/09 00:27:37;;;;;;;2.88;1.20;;;;;;;;;;5072782;28;20035;-69
2022/07/09 00:30:03;;;;;;;3.00;1.30;;;;;;;;;;5073313;28;20029;-68
2022/07/09 00:32:29;;;;;;;2.05;1.10;;;;;;;;;;5072204;28;20024;-68
2022/07/09 00:34:56;;;;;;;2.25;1.13;;;;;;;;;;5071695;28;20033;-68
2022/07/09 00:37:22;;;;;;;5.40;1.40;;;;;;;;;;5071894;28;20029;-68
2022/07/09 00:39:48;;;;;;;1.77;1.00;;;;;;;;;;5073184;28;20015;-68
2022/07/09 00:42:15;;;;;;;3.97;1.45;;;;;;;;;;5073174;28;20024;-68
2022/07/09 00:44:41;;;;;;;6.97;1.52;;;;;;;;;;5071738;28;20013;-68
2022/07/09 00:47:08;;;;;;;2.55;1.20;;;;;;;;;;5071955;28;20236;-68
2022/07/09 00:49:41;;;;;;;3.70;1.27;;;;;;;;;;5071542;28;20015;-68
2022/07/09 00:52:10;;;;;;;4.63;1.10;;;;;;;;;;5071648;28;20032;-69
2022/07/09 00:54:37;;;;;;;2.58;1.40;;;;;;;;;;5073930;28;20032;-69
2022/07/09 00:57:06;;;;;;;2.85;1.20;;;;;;;;;;5071026;28;20031;-68
2022/07/09 00:59:33;;;;;;;4.22;1.30;;;;;;;;;;5071162;28;20025;-68
2022/07/09 01:02:00;;;;;;;3.08;1.58;;;;;;;;;;5071575;28;20043;-68
2022/07/09 01:04:26;;;;;;;2.75;1.27;;;;;;;;;;5070122;28;20024;-68
2022/07/09 01:06:53;;;;;;;4.28;1.45;;;;;;;;;;5072308;28;20038;-69
2022/07/09 01:09:19;;;;;;;6.60;1.30;;;;;;;;;;5073228;28;20047;-69
2022/07/09 01:11:47;;;;;;;4.50;1.10;;;;;;;;;;5069454;28;20031;-68
2022/07/09 01:14:13;;;;;;;2.72;1.15;;;;;;;;;;5072781;28;20017;-69
2022/07/09 01:16:40;;;;;;;4.15;1.50;;;;;;;;;;5072900;28;20047;-68
2022/07/09 01:19:08;;;;;;;1.95;0.90;;;;;;;;;;5072233;28;20485;-69
2022/07/09 01:21:34;;;;;;;4.10;1.23;;;;;;;;;;5073688;28;20036;-68
2022/07/09 01:24:01;;;;;;;1.92;1.20;;;;;;;;;;5073111;28;20035;-68
2022/07/09 01:26:28;;;;;;;2.83;1.20;;;;;;;;;;5072740;28;20401;-68
2022/07/09 01:28:54;;;;;;;4.07;1.25;;;;;;;;;;5072340;28;20031;-68
2022/07/09 01:31:21;;;;;;;4.18;1.20;;;;;;;;;;5072321;28;20028;-68
2022/07/09 01:33:47;;;;;;;2.97;1.00;;;;;;;;;;5072205;28;20031;-68
2022/07/09 01:36:13;;;;;;;2.13;0.98;;;;;;;;;;5071829;28;20404;-68
2022/07/09 01:38:40;;;;;;;2.65;1.20;;;;;;;;;;5072173;28;20019;-68
2022/07/09 01:41:06;;;;;;;4.15;1.65;;;;;;;;;;5069537;28;20477;-68
2022/07/09 01:43:33;;;;;;;3.70;1.52;;;;;;;;;;5071336;28;20024;-68
2022/07/09 01:46:00;;;;;;;3.13;1.23;;;;;;;;;;5072102;28;20512;-68
2022/07/09 01:48:26;;;;;;;3.80;1.30;;;;;;;;;;5072895;28;20027;-69
2022/07/09 01:50:53;;;;;;;3.95;1.52;;;;;;;;;;5071812;28;20094;-68
2022/07/09 01:53:20;;;;;;;4.47;1.33;;;;;;;;;;5071846;28;20039;-68
2022/07/09 01:55:47;;;;;;;3.40;1.45;;;;;;;;;;5069111;28;20041;-68
2022/07/09 01:58:13;;;;;;;3.20;1.52;;;;;;;;;;5072194;28;20031;-68
2022/07/09 02:00:40;;;;;;;4.18;1.80;;;;;;;;;;5071913;28;20370;-68
2022/07/09 02:03:07;;;;;;;4.28;2.03;;;;;;;;;;5072770;28;20021;-68
2022/07/09 02:05:33;;;;;;;7.75;2.97;;;;;;;;;;5072126;28;20009;-68
2022/07/09 02:07:59;;;;;;;5.30;2.47;;;;;;;;;;5071355;28;20045;-68
2022/07/09 02:10:26;;;;;;;4.47;2.03;;;;;;;;;;5071778;28;20032;-68
2022/07/09 02:12:52;;;;;;;2.63;1.50;;;;;;;;;;5071733;28;20042;-68
2022/07/09 02:15:18;;;;;;;2.42;1.17;;;;;;;;;;5088485;28;20047;-68
2022/07/09 02:17:45;;;;;;;2.72;1.38;;;;;;;;;;5070972;28;20043;-68
2022/07/09 02:20:11;;;;;;;4.68;1.40;;;;;;;;;;5070230;28;20032;-68
2022/07/09 02:22:38;;;;;;;5.85;1.45;;;;;;;;;;5071205;28;20021;-68
2022/07/09 02:25:05;;;;;;;4.25;1.45;;;;;;;;;;5071268;28;20032;-68
2022/07/09 02:27:31;;;;;;;3.88;1.45;;;;;;;;;;5072526;28;20024;-68
2022/07/09 02:29:58;;;;;;;2.70;1.42;;;;;;;;;;5070636;28;20536;-68
2022/07/09 02:32:24;;;;;;;4.55;1.42;;;;;;;;;;5070972;28;20073;-68
2022/07/09 02:34:50;;;;;;;9.50;1.67;;;;;;;;;;5069813;28;20029;-68
2022/07/09 02:37:17;;;;;;;1.85;1.17;;;;;;;;;;5071302;28;20485;-68
2022/07/09 02:39:43;;;;;;;5.78;1.73;;;;;;;;;;5070875;28;20013;-68
2022/07/09 02:42:09;;;;;;;3.65;1.27;;;;;;;;;;5072337;28;20077;-67
2022/07/09 02:44:36;;;;;;;3.03;1.55;;;;;;;;;;5070713;28;20034;-68
2022/07/09 02:47:02;;;;;;;2.83;1.38;;;;;;;;;;5070572;28;20009;-68
2022/07/09 02:49:29;;;;;;;4.40;1.13;;;;;;;;;;5068191;28;20493;-68
2022/07/09 02:51:57;;;;;;;5.00;1.65;;;;;;;;;;5070857;28;20081;-68
2022/07/09 02:54:24;;;;;;;5.40;1.48;;;;;;;;;;5071914;28;20025;-68
2022/07/09 02:56:50;;;;;;;3.55;1.23;;;;;;;;;;5071082;28;20036;-68
2022/07/09 02:59:16;;;;;;;3.45;1.45;;;;;;;;;;5070381;28;20016;-68
2022/07/09 03:01:43;;;;;;;4.55;1.30;;;;;;;;;;5070315;28;20836;-68
2022/07/09 03:04:09;;;;;;;5.32;1.30;;;;;;;;;;5068168;28;20017;-68
2022/07/09 03:06:35;;;;;;;2.25;1.00;;;;;;;;;;5071776;28;20020;-68
2022/07/09 03:09:02;;;;;;;5.93;1.70;;;;;;;;;;5070853;28;20501;-68
2022/07/09 03:11:28;;;;;;;3.08;1.13;;;;;;;;;;5070342;28;20033;-68
2022/07/09 03:13:54;;;;;;;1.80;0.93;;;;;;;;;;5070286;28;20073;-68
2022/07/09 03:16:21;;;;;;;3.25;1.38;;;;;;;;;;5070302;28;20044;-68
2022/07/09 03:18:47;;;;;;;2.75;1.10;;;;;;;;;;5070464;28;20021;-68
2022/07/09 03:21:13;;;;;;;3.83;1.48;;;;;;;;;;5069614;28;20396;-68
2022/07/09 03:23:40;;;;;;;3.40;1.23;;;;;;;;;;5069052;28;20025;-68
2022/07/09 03:26:06;;;;;;;4.65;1.35;;;;;;;;;;5070043;28;20423;-68
2022/07/09 03:28:34;;;;;;;1.90;1.20;;;;;;;;;;5070006;28;20376;-68
2022/07/09 03:31:00;;;;;;;3.25;1.33;;;;;;;;;;5069060;28;20098;-68
2022/07/09 03:33:26;;;;;;;2.85;1.45;;;;;;;;;;5071480;28;20016;-68
2022/07/09 03:35:56;;;;;;;2.92;1.42;;;;;;;;;;5070133;28;20085;-68
2022/07/09 03:38:23;;;;;;;2.22;1.50;;;;;;;;;;5070168;28;20485;-68
2022/07/09 03:40:50;;;;;;;3.85;1.33;;;;;;;;;;5069890;28;20028;-68
2022/07/09 03:43:17;;;;;;;2.22;1.35;;;;;;;;;;5068912;28;20028;-68
2022/07/09 03:45:43;;;;;;;6.90;1.48;;;;;;;;;;5070149;28;20025;-68
2022/07/09 03:48:10;;;;;;;2.75;1.10;;;;;;;;;;5070639;28;20013;-68
2022/07/09 03:50:36;;;;;;;3.17;1.55;;;;;;;;;;5070446;28;20031;-68
2022/07/09 03:53:03;;;;;;;3.38;1.35;;;;;;;;;;5070269;28;20020;-68
2022/07/09 03:55:29;;;;;;;3.35;1.45;;;;;;;;;;5070028;28;20078;-68
2022/07/09 03:57:55;;;;;;;6.10;1.50;;;;;;;;;;5069688;28;20024;-68
2022/07/09 04:00:22;;;;;;;4.07;1.48;;;;;;;;;;5071113;28;20485;-68
2022/07/09 04:02:48;;;;;;;3.35;1.30;;;;;;;;;;5069751;28;20031;-68
2022/07/09 04:05:15;;;;;;;4.07;1.42;;;;;;;;;;5070018;28;20397;-68
2022/07/09 04:07:41;;;;;;;4.00;1.40;;;;;;;;;;5069594;28;20027;-68
2022/07/09 04:10:08;;;;;;;4.55;1.40;;;;;;;;;;5069906;28;20066;-68
2022/07/09 04:12:34;;;;;;;4.40;1.60;;;;;;;;;;5070347;28;20489;-68
2022/07/09 04:15:00;;;;;;;4.25;1.33;;;;;;;;;;5070045;28;20036;-68
2022/07/09 04:17:27;;;;;;;3.10;1.42;;;;;;;;;;5070016;28;20021;-68
2022/07/09 04:19:53;;;;;;;2.92;1.45;;;;;;;;;;5069381;28;20025;-68
2022/07/09 04:22:19;;;;;;;3.08;1.58;;;;;;;;;;5069938;28;20019;-68
2022/07/09 04:24:46;;;;;;;2.92;1.30;;;;;;;;;;5069778;28;20032;-68
2022/07/09 04:27:12;;;;;;;4.95;1.52;;;;;;;;;;5070389;28;20021;-68
2022/07/09 04:29:38;;;;;;;5.80;1.60;;;;;;;;;;5069435;28;20025;-68
2022/07/09 04:32:05;;;;;;;4.25;1.60;;;;;;;;;;5069611;28;20438;-68
2022/07/09 04:34:31;;;;;;;3.42;1.40;;;;;;;;;;5066751;28;20020;-68
2022/07/09 04:36:57;;;;;;;2.83;1.35;;;;;;;;;;5069630;28;20037;-68
2022/07/09 04:39:24;;;;;;;3.85;1.27;;;;;;;;;;5069630;28;20033;-68
2022/07/09 04:41:51;;;;;;;2.92;1.30;;;;;;;;;;5069212;28;20017;-68
2022/07/09 04:44:17;;;;;;;3.28;1.42;;;;;;;;;;5069723;28;20028;-68
2022/07/09 04:46:44;;;;;;;20.75;1.95;;;;;;;;;;5069573;28;20499;-68
2022/07/09 04:49:10;;;;;;;6.32;1.52;;;;;;;;;;5069479;28;20134;-68
2022/07/09 04:51:37;;;;;;;7.18;1.70;;;;;;;;;;5070478;28;20496;-68
2022/07/09 04:54:03;;;;;;;2.95;1.50;;;;;;;;;;5072000;28;20065;-68
2022/07/09 04:56:30;;;;;;;3.95;1.63;;;;;;;;;;5072468;28;20041;-68
2022/07/09 04:58:56;;;;;;;5.20;1.50;;;;;;;;;;5072907;28;20023;-68
2022/07/09 05:01:23;;;;;;;2.72;1.50;;;;;;;;;;5073892;28;20028;-68
2022/07/09 05:03:50;;;;;;;4.38;1.58;;;;;;;;;;5072840;28;20017;-68
2022/07/09 05:06:17;;;;;;;6.75;1.55;;;;;;;;;;5074108;28;20031;-68
2022/07/09 05:08:43;;;;;;;5.97;1.58;;;;;;;;;;5072864;28;20041;-68
2022/07/09 05:11:10;;;;;;;3.35;1.60;;;;;;;;;;5072466;28;20031;-68
2022/07/09 05:13:37;;;;;;;6.18;1.42;;;;;;;;;;5072844;28;20035;-69
2022/07/09 05:16:04;;;;;;;2.22;1.42;;;;;;;;;;5071694;28;20030;-68
2022/07/09 05:18:31;;;;;;;4.30;1.55;;;;;;;;;;5073754;28;20031;-68
2022/07/09 05:20:57;;;;;;;5.00;1.63;;;;;;;;;;5072407;28;20013;-68
2022/07/09 05:23:24;;;;;;;3.60;1.50;;;;;;;;;;5072574;28;20027;-68
2022/07/09 05:25:50;;;;;;;6.78;1.50;;;;;;;;;;5072128;28;20013;-68
2022/07/09 05:28:17;;;;;;;2.15;1.38;;;;;;;;;;5072757;28;20021;-68
2022/07/09 05:30:43;;;;;;;4.97;1.65;;;;;;;;;;5072527;28;20042;-67
2022/07/09 05:33:09;;;;;;;4.20;1.85;;;;;;;;;;5073352;28;20470;-68
2022/07/09 05:35:36;;;;;;;4.13;1.50;;;;;;;;;;5072240;28;20386;-67
2022/07/09 05:38:02;;;;;;;5.63;1.52;;;;;;;;;;5072264;28;20031;-69
2022/07/09 05:40:29;;;;;;;4.10;1.60;;;;;;;;;;5070302;28;20039;-68
2022/07/09 05:42:56;;;;;;;8.25;1.50;;;;;;;;;;5072193;28;20029;-68
2022/07/09 05:45:22;;;;;;;3.20;1.70;;;;;;;;;;5073734;28;20021;-67
2022/07/09 05:47:48;;;;;;;2.58;1.40;;;;;;;;;;5072475;28;20025;-68
2022/07/09 05:50:15;;;;;;;2.13;1.48;;;;;;;;;;5069321;28;20035;-68
2022/07/09 05:52:41;;;;;;;3.22;1.40;;;;;;;;;;5072116;28;20038;-68
2022/07/09 05:55:07;;;;;;;3.38;1.63;;;;;;;;;;5071510;28;20101;-68
2022/07/09 05:57:34;;;;;;;3.85;1.63;;;;;;;;;;5073042;28;20496;-68
2022/07/09 06:00:00;;;;;;;7.88;1.75;;;;;;;;;;5072163;28;20024;-68
2022/07/09 06:02:26;;;;;;;7.20;2.15;;;;;;;;;;5071798;28;20494;-68
2022/07/09 06:04:53;;;;;;;3.95;1.77;;;;;;;;;;5070645;28;20028;-68
2022/07/09 06:07:19;;;;;;;5.85;1.80;;;;;;;;;;5071899;28;20503;-68
2022/07/09 06:09:45;;;;;;;6.70;1.75;;;;;;;;;;5071280;28;20040;-68
2022/07/09 06:12:12;;;;;;;4.28;1.40;;;;;;;;;;5072798;28;20029;-69
2022/07/09 06:14:38;;;;;;;4.78;1.48;;;;;;;;;;5071525;28;20397;-68
2022/07/09 06:17:08;;;;;;;6.32;1.83;;;;;;;;;;5070536;28;20027;-68
2022/07/09 06:19:34;;;;;;;5.22;1.80;;;;;;;;;;5071589;28;20017;-68
2022/07/09 06:22:01;;;;;;;3.55;1.60;;;;;;;;;;5071766;28;20029;-68
2022/07/09 06:24:28;;;;;;;4.85;1.98;;;;;;;;;;5072443;28;20025;-68
2022/07/09 06:26:54;;;;;;;6.05;1.50;;;;;;;;;;5071165;28;20473;-68
2022/07/09 06:29:20;;;;;;;4.93;1.80;;;;;;;;;;5071453;28;20020;-68
2022/07/09 06:31:47;;;;;;;3.53;1.45;;;;;;;;;;5069911;28;20511;-67
2022/07/09 06:34:13;;;;;;;5.35;1.83;;;;;;;;;;5070915;28;20016;-68
2022/07/09 06:36:41;;;;;;;5.63;1.60;;;;;;;;;;5071450;28;20106;-68
2022/07/09 06:41:52;;;;;;;3.28;1.77;;;;;;;;;;5070183;28;20028;-68
2022/07/09 06:44:19;;;;;;;3.45;1.70;;;;;;;;;;5070620;28;20534;-68
2022/07/09 06:46:45;;;;;;;5.95;1.60;;;;;;;;;;5070788;28;20017;-68
2022/07/09 06:49:11;;;;;;;5.00;1.92;;;;;;;;;;5070597;28;20036;-68
2022/07/09 06:51:38;;;;;;;3.70;1.80;;;;;;;;;;5071120;28;20030;-68
2022/07/09 06:54:04;;;;;;;4.28;1.55;;;;;;;;;;5071136;28;20024;-68
2022/07/09 06:56:30;;;;;;;1.90;1.52;;;;;;;;;;5070081;28;20032;-69
2022/07/09 06:58:56;;;;;;;10.40;1.92;;;;;;;;;;5070563;28;20027;-68
2022/07/09 07:01:23;;;;;;;2.75;1.45;;;;;;;;;;5070342;28;20035;-68
2022/07/09 07:03:49;;;;;;;5.75;1.70;;;;;;;;;;5070931;28;20017;-68
2022/07/09 07:06:15;;;;;;;7.65;1.88;;;;;;;;;;5071069;28;20400;-68
2022/07/09 07:08:42;;;;;;;5.65;1.77;;;;;;;;;;5070197;28;20049;-68
2022/07/09 07:11:08;;;;;;;4.50;1.67;;;;;;;;;;5070126;28;20027;-68
2022/07/09 07:13:34;;;;;;;5.55;1.70;;;;;;;;;;5069892;28;20027;-68
2022/07/09 07:16:01;;;;;;;3.95;1.80;;;;;;;;;;5069808;28;20042;-68
2022/07/09 07:18:27;;;;;;;5.60;1.73;;;;;;;;;;5071485;28;20024;-68
2022/07/09 07:20:53;;;;;;;5.38;1.90;;;;;;;;;;5069332;28;20446;-68
2022/07/09 07:23:20;;;;;;;7.43;1.90;;;;;;;;;;5070275;28;20031;-68
2022/07/09 07:25:46;;;;;;;5.60;2.10;;;;;;;;;;5069655;28;20021;-68
2022/07/09 07:28:12;;;;;;;4.78;1.60;;;;;;;;;;5069522;28;20038;-68
2022/07/09 07:30:39;;;;;;;4.97;1.70;;;;;;;;;;5070963;28;20025;-68
2022/07/09 07:33:05;;;;;;;4.28;1.90;;;;;;;;;;5070268;28;20578;-68
2022/07/09 07:35:31;;;;;;;3.00;1.58;;;;;;;;;;5068886;28;20035;-68
2022/07/09 07:37:59;;;;;;;3.60;1.70;;;;;;;;;;5066882;28;20485;-68
2022/07/09 07:40:25;;;;;;;4.18;1.70;;;;;;;;;;5069661;28;20012;-68
2022/07/09 07:42:51;;;;;;;7.90;1.70;;;;;;;;;;5069564;28;20496;-68
2022/07/09 07:45:18;;;;;;;4.45;1.50;;;;;;;;;;5069907;28;20568;-68
2022/07/09 07:47:44;;;;;;;4.07;1.80;;;;;;;;;;5069459;28;20034;-68
2022/07/09 07:50:11;;;;;;;5.47;1.90;;;;;;;;;;5069024;28;20386;-68
2022/07/09 07:52:37;;;;;;;4.18;1.60;;;;;;;;;;5069649;28;20073;-68
2022/07/09 07:55:03;;;;;;;3.97;1.80;;;;;;;;;;5069301;28;20398;-68
2022/07/09 07:57:30;;;;;;;4.55;1.55;;;;;;;;;;5070262;28;20023;-68
2022/07/09 07:59:56;;;;;;;5.13;2.00;;;;;;;;;;5069341;28;20053;-68
2022/07/09 08:02:22;;;;;;;5.38;1.77;;;;;;;;;;5069243;28;20031;-68
2022/07/09 08:04:49;;;;;;;5.82;1.67;;;;;;;;;;5069119;28;20028;-68
2022/07/09 08:07:15;;;;;;;3.95;1.80;;;;;;;;;;5068967;28;20037;-68
2022/07/09 08:09:41;;;;;;;3.45;1.63;;;;;;;;;;5069891;28;20037;-68
2022/07/09 08:12:08;;;;;;;3.55;1.50;;;;;;;;;;5070182;28;20021;-68
2022/07/09 08:14:34;;;;;;;6.53;1.80;;;;;;;;;;5069231;28;20029;-69
2022/07/09 08:17:01;;;;;;;3.58;1.48;;;;;;;;;;5068983;28;20078;-68
2022/07/09 08:19:27;;;;;;;3.67;1.27;;;;;;;;;;5067427;28;20039;-68
2022/07/09 08:21:53;;;;;;;4.80;1.55;;;;;;;;;;5069303;28;20040;-68
2022/07/09 08:24:20;;;;;;;5.35;1.52;;;;;;;;;;5070928;28;20363;-68
2022/07/09 08:26:46;;;;;;;2.42;1.42;;;;;;;;;;5068698;28;20027;-68
2022/07/09 08:29:12;;;;;;;7.35;1.80;;;;;;;;;;5071614;28;20077;-68
2022/07/09 08:31:39;;;;;;;3.45;1.55;;;;;;;;;;5072867;28;20047;-68
2022/07/09 08:34:05;;;;;;;3.60;1.20;;;;;;;;;;5072801;28;20024;-68
2022/07/09 08:36:31;;;;;;;2.80;1.50;;;;;;;;;;5074773;28;20039;-69
2022/07/09 08:38:58;;;;;;;1.92;1.40;;;;;;;;;;5072637;28;20396;-69
2022/07/09 08:41:24;;;;;;;3.58;1.40;;;;;;;;;;5073123;28;20031;-69
2022/07/09 08:43:51;;;;;;;2.72;1.52;;;;;;;;;;5072714;28;20577;-70
2022/07/09 08:46:18;;;;;;;5.93;1.77;;;;;;;;;;5072752;28;20444;-69
2022/07/09 08:48:45;;;;;;;2.47;1.40;;;;;;;;;;5073194;28;20469;-69
2022/07/09 08:51:13;;;;;;;3.42;1.35;;;;;;;;;;5072723;28;20037;-69
2022/07/09 08:53:43;;;;;;;3.30;1.35;;;;;;;;;;5071392;28;20029;-69
2022/07/09 08:56:10;;;;;;;3.40;1.40;;;;;;;;;;5072451;28;20037;-69
2022/07/09 08:58:38;;;;;;;3.10;1.20;;;;;;;;;;5072479;28;20023;-69
2022/07/09 09:01:06;;;;;;;2.75;1.40;;;;;;;;;;5072751;28;20027;-69
2022/07/09 09:03:32;;;;;;;2.55;1.60;;;;;;;;;;5072807;28;20372;-69
2022/07/09 09:06:07;;;;;;;5.25;1.38;;;;;;;;;;5072665;28;20028;-69
2022/07/09 09:08:40;;;;;;;2.47;1.30;;;;;;;;;;5072081;28;20041;-69
2022/07/09 09:11:14;;;;;;;3.17;1.30;;;;;;;;;;5070355;28;20480;-69
2022/07/09 09:13:41;;;;;;;2.38;1.40;;;;;;;;;;5072174;28;20487;-69
2022/07/09 09:16:08;;;;;;;4.43;1.17;;;;;;;;;;5072021;28;20037;-69
2022/07/09 09:18:36;;;;;;;2.60;1.13;;;;;;;;;;5073299;28;20031;-68
2022/07/09 09:21:06;;;;;;;2.88;1.40;;;;;;;;;;5072127;28;20035;-69
2022/07/09 09:23:49;;;;;;;4.97;1.20;;;;;;;;;;5072051;28;20419;-70
2022/07/09 09:26:18;;;;;;;4.40;1.17;;;;;;;;;;5071044;28;20419;-69
2022/07/09 09:28:55;;;;;;;6.18;1.50;;;;;;;;;;5069665;28;20502;-69
2022/07/09 09:31:21;;;;;;;2.42;1.30;;;;;;;;;;5071325;28;20484;-69
2022/07/09 09:33:47;;;;;;;3.70;1.50;;;;;;;;;;5072289;28;20025;-69
2022/07/09 09:36:32;;;;;;;4.65;1.30;;;;;;;;;;5072410;28;20404;-70
2022/07/09 09:39:18;;;;;;;3.00;1.38;;;;;;;;;;5071661;28;20481;-69
2022/07/09 09:41:54;;;;;;;3.40;0.98;;;;;;;;;;5085284;28;20024;-68
2022/07/09 09:44:26;;;;;;;2.80;1.45;;;;;;;;;;5071634;28;20021;-69
2022/07/09 09:46:53;;;;;;;3.42;1.05;;;;;;;;;;5071541;28;20025;-70
2022/07/09 09:49:20;;;;;;;2.63;1.13;;;;;;;;;;5071674;28;20396;-70
2022/07/09 09:52:01;;;;;;;4.78;1.30;;;;;;;;;;5072591;28;20493;-70
2022/07/09 09:54:28;;;;;;;3.20;1.20;;;;;;;;;;5073530;28;20043;-70
2022/07/09 09:56:55;;;;;;;2.53;1.08;;;;;;;;;;5069878;28;20038;-70
2022/07/09 09:59:21;;;;;;;6.57;1.45;;;;;;;;;;5071435;28;20020;-69
2022/07/09 10:01:47;;;;;;;2.17;1.10;;;;;;;;;;5070831;28;20017;-69
2022/07/09 10:04:18;;;;;;;1.73;1.00;;;;;;;;;;5071016;28;20035;-69
2022/07/09 10:06:44;;;;;;;2.72;0.95;;;;;;;;;;5070000;28;20515;-69
2022/07/09 10:09:12;;;;;;;2.22;0.85;;;;;;;;;;5071584;28;20048;-69
2022/07/09 10:11:46;;;;;;;3.13;1.10;;;;;;;;;;5070861;28;20023;-70
2022/07/09 10:14:39;;;;;;;2.90;1.00;;;;;;;;;;5070673;28;20029;-70
2022/07/09 10:17:11;;;;;;;3.47;0.80;;;;;;;;;;5067237;28;20047;-70
2022/07/09 10:19:37;;;;;;;2.08;1.02;;;;;;;;;;5070739;28;20492;-70
2022/07/09 10:22:04;;;;;;;1.58;0.95;;;;;;;;;;5068481;28;20035;-69
2022/07/09 10:24:31;;;;;;;3.80;1.20;;;;;;;;;;5071081;28;20066;-70
2022/07/09 10:27:04;;;;;;;2.05;0.90;;;;;;;;;;5070651;28;20025;-69
2022/07/09 10:29:31;;;;;;;4.03;1.00;;;;;;;;;;5068483;28;20393;-70
2022/07/09 10:31:57;;;;;;;3.03;1.38;;;;;;;;;;5070740;28;20028;-70
2022/07/09 10:34:24;;;;;;;1.73;0.85;;;;;;;;;;5067578;28;20393;-70
2022/07/09 10:37:03;;;;;;;2.38;1.10;;;;;;;;;;5071294;28;20082;-69
2022/07/09 10:39:30;;;;;;;5.18;1.00;;;;;;;;;;5072269;28;20033;-69
2022/07/09 10:42:04;;;;;;;4.90;1.00;;;;;;;;;;5070335;28;20037;-70
2022/07/09 10:44:37;;;;;;;1.85;1.10;;;;;;;;;;5068040;28;20026;-70
2022/07/09 10:47:07;;;;;;;1.80;0.90;;;;;;;;;;5068928;28;20020;-69
2022/07/09 10:49:33;;;;;;;;;;;;;;;;;;5070307;28;20366;-70
2022/07/09 10:52:00;;;;;;;2.15;1.30;;;;;;;;;;5069365;28;19914;-70
2022/07/09 10:54:26;;;;;;;2.10;1.05;;;;;;;;;;5072352;28;20042;-70
2022/07/09 10:56:54;;;;;;;1.98;0.85;;;;;;;;;;5069270;28;20032;-70
2022/07/09 10:59:21;;;;;;;2.50;1.10;;;;;;;;;;5069501;28;20032;-70
2022/07/09 11:01:48;;;;;;;1.77;1.00;;;;;;;;;;5068277;28;20028;-69
2022/07/09 11:04:24;;;;;;;2.78;1.20;;;;;;;;;;5069556;28;20028;-69
2022/07/09 11:06:51;;;;;;;4.60;1.17;;;;;;;;;;5069030;28;20078;-70
2022/07/09 11:09:17;;;;;;;2.50;1.00;;;;;;;;;;5070620;28;20398;-70
2022/07/09 11:11:44;;;;;;;2.15;1.05;;;;;;;;;;5069192;28;20077;-69
2022/07/09 11:14:10;;;;;;;2.00;0.90;;;;;;;;;;5068820;28;20019;-69
2022/07/09 11:16:37;;;;;;;1.63;0.82;;;;;;;;;;5069109;28;20033;-70
2022/07/09 11:19:13;;;;;;;1.55;0.80;;;;;;;;;;5069152;28;20027;-70
2022/07/09 11:21:39;;;;;;;4.30;1.00;;;;;;;;;;5070070;28;20082;-70
2022/07/09 11:24:13;;;;;;;3.08;1.10;;;;;;;;;;5070136;28;20035;-70
2022/07/09 11:26:39;;;;;;;3.10;1.00;;;;;;;;;;5069280;28;20024;-70
2022/07/09 11:29:08;;;;;;;2.88;1.10;;;;;;;;;;5067527;28;20073;-70
2022/07/09 11:31:34;;;;;;;2.45;1.05;;;;;;;;;;5069091;28;20025;-70
2022/07/09 11:34:12;;;;;;;1.45;0.93;;;;;;;;;;5069218;28;20029;-70
2022/07/09 11:36:46;;;;;;;2.92;1.05;;;;;;;;;;5069810;28;20043;-70
2022/07/09 11:39:22;;;;;;;1.92;1.08;;;;;;;;;;5071049;28;20024;-69
2022/07/09 11:41:49;;;;;;;2.83;1.30;;;;;;;;;;5067278;28;20021;-69
2022/07/09 11:44:28;;;;;;;2.45;1.02;;;;;;;;;;5068662;28;20021;-69
2022/07/09 11:47:04;;;;;;;1.63;0.73;;;;;;;;;;5066817;28;20032;-70
2022/07/09 11:49:43;;;;;;;5.07;1.00;;;;;;;;;;5066488;28;20012;-70
2022/07/09 11:52:19;;;;;;;1.58;1.00;;;;;;;;;;5068798;28;20029;-70
2022/07/09 11:54:59;;;;;;;3.60;1.08;;;;;;;;;;5067916;28;20019;-70
2022/07/09 11:57:26;;;;;;;5.00;0.80;;;;;;;;;;5070602;28;20378;-69
2022/07/09 11:59:52;;;;;;;1.45;1.10;;;;;;;;;;5067255;28;20027;-70
2022/07/09 12:02:31;;;;;;;1.67;0.88;;;;;;;;;;5068771;28;20033;-70
2022/07/09 12:04:57;;;;;;;2.58;1.00;;;;;;;;;;5070489;28;20385;-70
2022/07/09 12:07:24;;;;;;;1.00;0.85;;;;;;;;;;5071989;28;20021;-70
2022/07/09 12:10:01;;;;;;;1.23;0.90;;;;;;;;;;5073914;28;20036;-70
2022/07/09 12:12:27;;;;;;;2.30;0.93;;;;;;;;;;5074783;28;20513;-69
2022/07/09 12:14:57;;;;;;;1.60;1.00;;;;;;;;;;5072504;28;20029;-70
2022/07/09 12:17:28;;;;;;;1.80;0.95;;;;;;;;;;5073846;28;20032;-69
2022/07/09 12:19:55;;;;;;;2.75;0.93;;;;;;;;;;5073856;28;20039;-69
2022/07/09 12:22:23;;;;;;;2.83;1.00;;;;;;;;;;5073745;28;20047;-70
2022/07/09 12:24:50;;;;;;;1.17;0.98;;;;;;;;;;5071567;28;20027;-70
2022/07/09 12:27:16;;;;;;;2.70;0.90;;;;;;;;;;5073680;28;20024;-70
2022/07/09 12:29:42;;;;;;;1.75;0.90;;;;;;;;;;5073600;28;20029;-70
2022/07/09 12:32:09;;;;;;;1.70;0.90;;;;;;;;;;5073502;28;20016;-70
2022/07/09 12:34:35;;;;;;;1.73;0.80;;;;;;;;;;5074085;28;20035;-70
2022/07/09 12:37:02;;;;;;;2.35;0.80;;;;;;;;;;5073434;28;20044;-69
2022/07/09 12:39:28;;;;;;;1.20;0.80;;;;;;;;;;5074613;28;20017;-70
2022/07/09 12:41:54;;;;;;;1.00;0.90;;;;;;;;;;5073747;28;20021;-70
2022/07/09 12:44:21;;;;;;;1.98;0.95;;;;;;;;;;5073657;28;20050;-70
2022/07/09 12:46:47;;;;;;;2.80;0.98;;;;;;;;;;5072980;28;20027;-70
2022/07/09 12:49:14;;;;;;;1.70;1.00;;;;;;;;;;5073176;28;20438;-70
2022/07/09 12:51:40;;;;;;;0.85;0.85;;;;;;;;;;5073973;28;20016;-70
2022/07/09 12:54:06;;;;;;;2.08;0.90;;;;;;;;;;5073831;28;20354;-70
2022/07/09 12:56:32;;;;;;;1.17;0.93;;;;;;;;;;5072990;28;20024;-70
2022/07/09 12:58:59;;;;;;;2.20;0.90;;;;;;;;;;5073468;28;20036;-70
2022/07/09 13:01:25;;;;;;;2.78;0.90;;;;;;;;;;5073180;28;20021;-70
2022/07/09 13:03:53;;;;;;;1.17;0.80;;;;;;;;;;5073066;28;20015;-70
2022/07/09 13:06:32;;;;;;;3.03;0.90;;;;;;;;;;5074296;28;20025;-70
2022/07/09 13:08:58;;;;;;;1.98;0.93;;;;;;;;;;5072236;28;20041;-70
2022/07/09 13:11:25;;;;;;;2.53;0.77;;;;;;;;;;5072901;28;20507;-70
2022/07/09 13:13:51;;;;;;;3.35;0.90;;;;;;;;;;5072320;28;20021;-70
2022/07/09 13:16:17;;;;;;;2.05;0.93;;;;;;;;;;5072706;28;20531;-70
2022/07/09 13:18:44;;;;;;;1.13;0.73;;;;;;;;;;5073417;28;20039;-70
2022/07/09 13:21:10;;;;;;;3.80;0.80;;;;;;;;;;5074035;28;20028;-69
2022/07/09 13:23:36;;;;;;;2.20;0.90;;;;;;;;;;5072259;28;20426;-70
2022/07/09 13:26:03;;;;;;;0.80;0.80;;;;;;;;;;5072395;28;20039;-70
2022/07/09 13:28:29;;;;;;;1.95;0.93;;;;;;;;;;5070174;28;20025;-69
2022/07/09 13:30:56;;;;;;;1.88;0.93;;;;;;;;;;5071449;28;20032;-70
2022/07/09 13:33:22;;;;;;;2.08;0.80;;;;;;;;;;5073760;28;20408;-70
2022/07/09 13:35:48;;;;;;;1.48;0.70;;;;;;;;;;5072450;28;20028;-69
2022/07/09 13:38:15;;;;;;;3.20;0.80;;;;;;;;;;5072359;28;20047;-70
2022/07/09 13:40:41;;;;;;;1.90;0.90;;;;;;;;;;5072612;28;20022;-70
2022/07/09 13:43:07;;;;;;;0.73;0.73;;;;;;;;;;5072243;28;20404;-69
2022/07/09 13:45:34;;;;;;;2.42;0.77;;;;;;;;;;5073466;28;20027;-69
2022/07/09 13:48:00;;;;;;;2.60;0.80;;;;;;;;;;5072493;28;20459;-69
2022/07/09 13:50:26;;;;;;;1.92;0.95;;;;;;;;;;5072027;28;20017;-71
2022/07/09 13:52:53;;;;;;;1.73;1.00;;;;;;;;;;5071777;28;20113;-70
2022/07/09 13:55:19;;;;;;;1.60;0.98;;;;;;;;;;5072215;28;20033;-69
2022/07/09 13:57:45;;;;;;;1.35;0.80;;;;;;;;;;5072106;28;20039;-70
2022/07/09 14:00:12;;;;;;;1.88;0.98;;;;;;;;;;5073118;28;20515;-69
2022/07/09 14:02:39;;;;;;;1.85;0.90;;;;;;;;;;5071967;28;20027;-69
2022/07/09 14:05:05;;;;;;;1.65;1.00;;;;;;;;;;5071503;28;20070;-70
2022/07/09 14:07:32;;;;;;;2.67;1.00;;;;;;;;;;5071489;28;20023;-70
2022/07/09 14:09:58;;;;;;;2.53;1.02;;;;;;;;;;5071950;28;20034;-69
2022/07/09 14:12:25;;;;;;;1.55;1.02;;;;;;;;;;5072925;28;20542;-70
2022/07/09 14:14:52;;;;;;;1.05;0.80;;;;;;;;;;5070353;28;20046;-70
2022/07/09 14:17:19;;;;;;;1.13;0.90;;;;;;;;;;5071593;28;20035;-70
2022/07/09 14:19:45;;;;;;;2.58;0.80;;;;;;;;;;5071601;28;20025;-70
2022/07/09 14:22:12;;;;;;;1.40;0.85;;;;;;;;;;5068715;28;20028;-69
2022/07/09 14:24:38;;;;;;;2.47;0.90;;;;;;;;;;5072172;28;20013;-70
2022/07/09 14:27:04;;;;;;;5.15;0.90;;;;;;;;;;5071432;28;20029;-69
2022/07/09 14:29:31;;;;;;;1.50;0.80;;;;;;;;;;5068759;28;20027;-70
2022/07/09 14:31:57;;;;;;;2.78;1.00;;;;;;;;;;5071416;28;20481;-69
2022/07/09 14:34:23;;;;;;;1.00;0.80;;;;;;;;;;5071352;28;20029;-69
2022/07/09 14:36:50;;;;;;;3.50;0.70;;;;;;;;;;5070658;28;20032;-70
2022/07/09 14:39:17;;;;;;;1.23;0.82;;;;;;;;;;5070497;28;20021;-69
2022/07/09 14:41:44;;;;;;;3.70;1.08;;;;;;;;;;5071531;28;20019;-70
2022/07/09 14:44:12;;;;;;;0.98;0.80;;;;;;;;;;5071225;28;20150;-69
2022/07/09 14:46:38;;;;;;;2.15;1.10;;;;;;;;;;5071338;28;20027;-69